createdAt,value
2023-05-08T00:01:06.256Z,98771.78
2023-05-08T00:03:33.787Z,98765.59
2023-05-08T00:06:04.534Z,98773.22
2023-05-08T00:08:31.701Z,98764.78
2023-05-08T00:10:58.758Z,98760.31
2023-05-08T00:13:26.142Z,98758.34
2023-05-08T00:15:53.269Z,98762.78
2023-05-08T00:18:20.336Z,98755.09
2023-05-08T00:20:47.343Z,98751.56
2023-05-08T00:23:14.600Z,98758.75
2023-05-08T00:25:41.646Z,98745.06
2023-05-08T00:28:08.740Z,98748.84
2023-05-08T00:30:35.818Z,98751.81
2023-05-08T00:33:02.887Z,98752.31
2023-05-08T00:35:29.959Z,98747.78
2023-05-08T00:37:57.005Z,98748.22
2023-05-08T00:40:24.258Z,98748.88
2023-05-08T00:42:51.368Z,98751.88
2023-05-08T00:45:18.476Z,98742.69
2023-05-08T00:47:45.685Z,98742.69
2023-05-08T00:50:13.233Z,98747.91
2023-05-08T00:52:40.677Z,98752.31
2023-05-08T00:55:08.020Z,98747.06
2023-05-08T00:57:35.773Z,98743.59
2023-05-08T01:00:04.205Z,98746.75
2023-05-08T01:02:32.583Z,98745.75
2023-05-08T01:05:00.047Z,98750.72
2023-05-08T01:07:27.801Z,98756.16
2023-05-08T01:09:54.876Z,98742.53
2023-05-08T01:12:34.997Z,98752.66
2023-05-08T01:15:39.755Z,98749.16
2023-05-08T01:18:14.963Z,98742.72
2023-05-08T01:20:54.999Z,98740.06
2023-05-08T01:23:48.801Z,98740.53
2023-05-08T01:26:32.060Z,98745.38
2023-05-08T01:29:30.858Z,98743.91
2023-05-08T01:32:19.392Z,98737.44
2023-05-08T01:34:56.948Z,98737.94
2023-05-08T01:37:30.493Z,98732.22
2023-05-08T01:40:05.303Z,98741.16
2023-05-08T01:42:44.093Z,98726.25
2023-05-08T01:45:19.701Z,98735.38
2023-05-08T01:47:51.976Z,98727.97
2023-05-08T01:50:25.800Z,98736.06
2023-05-08T01:52:58.311Z,98732.66
2023-05-08T01:55:28.988Z,98736.63
2023-05-08T01:57:58.358Z,98738.84
2023-05-08T02:00:27.234Z,98740.28
2023-05-08T02:02:55.755Z,98737.03
2023-05-08T02:05:24.629Z,98749.41
2023-05-08T02:07:52.703Z,98750.66
2023-05-08T02:10:20.627Z,98747.44
2023-05-08T02:12:48.846Z,98750.34
2023-05-08T02:15:17.644Z,98746.91
2023-05-08T02:17:46.955Z,98746.44
2023-05-08T02:20:15.249Z,98752.41
2023-05-08T02:22:44.511Z,98749.91
2023-05-08T02:25:14.520Z,98751.34
2023-05-08T02:27:47.770Z,98750.84
2023-05-08T02:30:16.962Z,98745.41
2023-05-08T02:32:45.350Z,98752.63
2023-05-08T02:35:14.375Z,98759.34
2023-05-08T02:37:47.040Z,98756.41
2023-05-08T02:40:15.106Z,98757.34
2023-05-08T02:42:43.520Z,98755.66
2023-05-08T02:45:12.373Z,98752.66
2023-05-08T02:47:42.671Z,98755.66
2023-05-08T02:50:15.219Z,98758.38
2023-05-08T02:52:51.371Z,98757.66
2023-05-08T02:55:51.800Z,98755.66
2023-05-08T02:58:43.509Z,98759.13
2023-05-08T03:01:31.818Z,98758.09
2023-05-08T03:04:05.359Z,98763.03
2023-05-08T03:06:37.404Z,98763.28
2023-05-08T03:09:05.814Z,98765.50
2023-05-08T03:11:39.461Z,98764.47
2023-05-08T03:14:10.478Z,98769.16
2023-05-08T03:16:39.966Z,98769.16
2023-05-08T03:19:12.787Z,98768.66
2023-05-08T03:21:41.042Z,98767.66
2023-05-08T03:24:09.220Z,98767.66
2023-05-08T03:26:36.829Z,98764.69
2023-05-08T03:29:04.331Z,98765.91
2023-05-08T03:31:32.195Z,98759.72
2023-05-08T03:33:59.684Z,98769.84
2023-05-08T03:36:27.094Z,98762.16
2023-05-08T03:38:54.201Z,98766.84
2023-05-08T03:41:21.820Z,98761.41
2023-05-08T03:43:49.260Z,98764.63
2023-05-08T03:46:16.718Z,98758.44
2023-05-08T03:48:44.203Z,98763.59
2023-05-08T03:51:11.234Z,98769.03
2023-05-08T03:53:38.503Z,98776.66
2023-05-08T03:56:05.678Z,98772.69
2023-05-08T03:58:38.835Z,98778.38
2023-05-08T04:01:12.357Z,98773.47
2023-05-08T04:03:59.204Z,98771.78
2023-05-08T04:06:41.928Z,98774.56
2023-05-08T04:09:36.321Z,98779.78
2023-05-08T04:12:03.457Z,98777.56
2023-05-08T04:14:50.858Z,98781.34
2023-05-08T04:17:25.227Z,98783.31
2023-05-08T04:19:58.918Z,98777.13
2023-05-08T04:22:27.202Z,98795.47
2023-05-08T04:24:58.099Z,98790.03
2023-05-08T04:27:25.785Z,98794.72
2023-05-08T04:29:54.080Z,98793.22
2023-05-08T04:32:21.979Z,98799.41
2023-05-08T04:34:49.998Z,98801.66
2023-05-08T04:37:27.899Z,98805.41
2023-05-08T04:39:55.018Z,98802.69
2023-05-08T04:42:22.096Z,98808.91
2023-05-08T04:44:49.189Z,98798.56
2023-05-08T04:47:16.258Z,98811.50
2023-05-08T04:49:43.758Z,98812.50
2023-05-08T04:52:11.429Z,98815.56
2023-05-08T04:54:38.455Z,98810.38
2023-05-08T04:57:07.248Z,98805.19
2023-05-08T04:59:34.461Z,98807.00
2023-05-08T05:02:06.081Z,98815.53
2023-05-08T05:04:33.709Z,98816.16
2023-05-08T05:07:01.264Z,98815.75
2023-05-08T05:09:28.357Z,98820.06
2023-05-08T05:11:56.453Z,98821.59
2023-05-08T05:14:25.095Z,98816.44
2023-05-08T05:16:52.697Z,98830.69
2023-05-08T05:19:19.738Z,98821.06
2023-05-08T05:21:46.853Z,98821.59
2023-05-08T05:24:13.888Z,98822.09
2023-05-08T05:26:41.167Z,98820.44
2023-05-08T05:29:08.399Z,98824.69
2023-05-08T05:31:35.514Z,98813.06
2023-05-08T05:34:02.660Z,98823.22
2023-05-08T05:36:29.727Z,98825.72
2023-05-08T05:38:56.826Z,98822.53
2023-05-08T05:41:24.346Z,98822.28
2023-05-08T05:43:51.754Z,98826.81
2023-05-08T05:46:18.844Z,98836.00
2023-05-08T05:48:45.994Z,98840.25
2023-05-08T05:51:13.218Z,98830.06
2023-05-08T05:53:40.256Z,98834.09
2023-05-08T05:56:07.453Z,98841.53
2023-05-08T05:58:35.296Z,98839.34
2023-05-08T06:01:02.402Z,98849.03
2023-05-08T06:03:29.539Z,98851.78
2023-05-08T06:05:57.666Z,98849.25
2023-05-08T06:08:24.773Z,98847.75
2023-05-08T06:10:51.955Z,98846.03
2023-05-08T06:13:20.526Z,98850.03
2023-05-08T06:15:47.615Z,98849.25
2023-05-08T06:18:14.661Z,98852.50
2023-05-08T06:20:42.608Z,98841.31
2023-05-08T06:23:09.745Z,98847.78
2023-05-08T06:25:36.823Z,98846.25
2023-05-08T06:28:06.493Z,98849.28
2023-05-08T06:30:34.489Z,98855.44
2023-05-08T06:33:01.754Z,98864.41
2023-05-08T06:35:28.913Z,98859.91
2023-05-08T06:37:55.942Z,98860.66
2023-05-08T06:40:23.773Z,98853.94
2023-05-08T06:42:51.053Z,98854.63
2023-05-08T06:45:18.103Z,98858.88
2023-05-08T06:47:45.298Z,98861.78
2023-05-08T06:50:12.400Z,98860.34
2023-05-08T06:52:39.514Z,98871.03
2023-05-08T06:55:06.754Z,98869.81
2023-05-08T06:57:33.827Z,98857.13
2023-05-08T07:00:00.934Z,98862.31
2023-05-08T07:02:28.047Z,98864.28
2023-05-08T07:04:55.173Z,98863.53
2023-05-08T07:07:22.437Z,98865.03
2023-05-08T07:09:49.472Z,98871.94
2023-05-08T07:12:16.760Z,98868.22
2023-05-08T07:14:43.840Z,98869.22
2023-05-08T07:17:10.966Z,98880.66
2023-05-08T07:19:38.464Z,98867.63
2023-05-08T07:22:06.058Z,98864.06
2023-05-08T07:24:33.220Z,98867.75
2023-05-08T07:27:00.674Z,98870.16
2023-05-08T07:29:27.769Z,98879.81
2023-05-08T07:31:54.872Z,98861.56
2023-05-08T07:34:22.060Z,98870.88
2023-05-08T07:36:49.360Z,98873.97
2023-05-08T07:39:16.448Z,98873.38
2023-05-08T07:41:43.699Z,98868.63
2023-05-08T07:44:10.741Z,98874.91
2023-05-08T07:46:38.046Z,98874.97
2023-05-08T07:49:05.521Z,98878.03
2023-05-08T07:51:33.210Z,98874.59
2023-05-08T07:54:00.513Z,98877.78
2023-05-08T07:56:28.558Z,98866.63
2023-05-08T07:58:55.671Z,98877.19
2023-05-08T08:01:22.714Z,98870.22
2023-05-08T08:03:49.862Z,98860.09
2023-05-08T08:06:18.465Z,98864.34
2023-05-08T08:08:45.553Z,98858.16
2023-05-08T08:11:12.708Z,98865.47
2023-05-08T08:13:39.810Z,98855.56
2023-05-08T08:16:06.915Z,98867.63
2023-05-08T08:18:35.815Z,98850.56
2023-05-08T08:21:06.286Z,98848.34
2023-05-08T08:23:33.735Z,98849.13
2023-05-08T08:26:01.075Z,98851.69
2023-05-08T08:28:28.250Z,98846.38
2023-05-08T08:30:55.465Z,98855.97
2023-05-08T08:33:22.705Z,98845.16
2023-05-08T08:35:49.754Z,98847.16
2023-05-08T08:38:16.905Z,98844.41
2023-05-08T08:40:44.447Z,98845.19
2023-05-08T08:43:11.576Z,98844.31
2023-05-08T08:45:38.961Z,98850.78
2023-05-08T08:48:10.121Z,98848.44
2023-05-08T08:50:46.728Z,98839.22
2023-05-08T08:53:27.357Z,98836.31
2023-05-08T08:55:57.017Z,98838.22
2023-05-08T08:58:37.403Z,98840.75
2023-05-08T09:01:07.775Z,98844.00
2023-05-08T09:03:35.152Z,98832.56
2023-05-08T09:06:02.808Z,98831.22
2023-05-08T09:08:29.948Z,98839.19
2023-05-08T09:10:56.996Z,98835.69
2023-05-08T09:13:24.212Z,98832.84
2023-05-08T09:15:51.408Z,98837.59
2023-05-08T09:18:19.244Z,98827.78
2023-05-08T09:20:46.865Z,98835.34
2023-05-08T09:23:18.411Z,98832.75
2023-05-08T09:25:47.296Z,98842.09
2023-05-08T09:28:19.393Z,98831.31
2023-05-08T09:30:51.337Z,98852.66
2023-05-08T09:33:18.676Z,98840.88
2023-05-08T09:35:48.391Z,98839.59
2023-05-08T09:38:35.486Z,98841.56
2023-05-08T09:41:08.509Z,98834.22
2023-05-08T09:43:35.678Z,98844.53
2023-05-08T09:46:26.698Z,98844.97
2023-05-08T09:48:55.727Z,98829.91
2023-05-08T09:51:23.838Z,98827.56
2023-05-08T09:53:55.025Z,98829.84
2023-05-08T09:56:39.516Z,98826.94
2023-05-08T09:59:23.988Z,98837.63
2023-05-08T10:01:51.151Z,98831.47
2023-05-08T10:04:18.701Z,98831.59
2023-05-08T10:06:57.264Z,98839.63
2023-05-08T10:09:24.349Z,98837.69
2023-05-08T10:11:53.127Z,98830.28
2023-05-08T10:14:20.826Z,98831.88
2023-05-08T10:16:49.913Z,98828.44
2023-05-08T10:19:18.963Z,98825.13
2023-05-08T10:21:47.925Z,98822.53
2023-05-08T10:24:17.570Z,98828.13
2023-05-08T10:27:05.487Z,98827.56
2023-05-08T10:29:41.639Z,98825.47
2023-05-08T10:32:11.872Z,98820.28
2023-05-08T10:34:40.916Z,98824.94
2023-05-08T10:37:09.633Z,98817.22
2023-05-08T10:39:37.475Z,98820.63
2023-05-08T10:42:04.987Z,98820.38
2023-05-08T10:44:32.158Z,98824.88
2023-05-08T10:47:20.988Z,98825.31
2023-05-08T10:50:05.804Z,98812.03
2023-05-08T10:52:42.774Z,98817.56
2023-05-08T10:55:38.899Z,98813.53
2023-05-08T10:58:10.493Z,98810.94
2023-05-08T11:01:09.204Z,98810.56
2023-05-08T11:03:45.142Z,98807.06
2023-05-08T11:06:12.911Z,98814.25
2023-05-08T11:08:54.851Z,98796.53
2023-05-08T11:11:28.662Z,98806.88
2023-05-08T11:14:15.043Z,98796.91
2023-05-08T11:17:11.506Z,98793.94
2023-05-08T11:19:38.727Z,98794.50
2023-05-08T11:22:14.628Z,98790.63
2023-05-08T11:24:47.676Z,98797.44
2023-05-08T11:27:16.184Z,98799.88
2023-05-08T11:29:44.865Z,98803.94
2023-05-08T11:32:12.125Z,98797.66
2023-05-08T11:34:42.450Z,98795.44
2023-05-08T11:37:11.039Z,98801.84
2023-05-08T11:39:38.205Z,98788.94
2023-05-08T11:42:27.259Z,98788.59
2023-05-08T11:45:07.571Z,98786.56
2023-05-08T11:47:39.525Z,98788.59
2023-05-08T11:50:08.230Z,98783.22
2023-05-08T11:52:36.290Z,98778.28
2023-05-08T11:55:04.833Z,98780.50
2023-05-08T11:57:33.105Z,98786.56
2023-05-08T12:00:11.392Z,98782.31
2023-05-08T12:02:43.874Z,98783.25
2023-05-08T12:05:11.630Z,98784.00
2023-05-08T12:07:46.734Z,98785.81
2023-05-08T12:10:15.438Z,98781.03
2023-05-08T12:12:44.364Z,98791.56
2023-05-08T12:15:14.010Z,98789.53
2023-05-08T12:17:41.889Z,98776.97
2023-05-08T12:20:17.389Z,98788.06
2023-05-08T12:22:52.242Z,98776.97
2023-05-08T12:25:19.627Z,98777.34
2023-05-08T12:27:46.969Z,98792.88
2023-05-08T12:30:15.317Z,98794.88
2023-05-08T12:32:43.368Z,98791.00
2023-05-08T12:35:11.848Z,98790.63
2023-05-08T12:37:39.555Z,98787.28
2023-05-08T12:40:07.750Z,98780.09
2023-05-08T12:42:49.905Z,98784.72
2023-05-08T12:45:38.591Z,98788.97
2023-05-08T12:48:07.496Z,98785.81
2023-05-08T12:50:36.590Z,98781.75
2023-05-08T12:53:08.380Z,98787.84
2023-05-08T12:55:36.768Z,98784.34
2023-05-08T12:58:17.397Z,98772.91
2023-05-08T13:00:46.649Z,98770.88
2023-05-08T13:03:22.612Z,98774.56
2023-05-08T13:05:49.830Z,98769.78
2023-05-08T13:08:17.132Z,98778.63
2023-05-08T13:10:48.716Z,98765.84
2023-05-08T13:13:17.690Z,98768.25
2023-05-08T13:15:44.949Z,98765.28
2023-05-08T13:18:12.569Z,98759.75
2023-05-08T13:20:41.098Z,98750.34
2023-05-08T13:23:08.951Z,98755.88
2023-05-08T13:25:37.057Z,98753.47
2023-05-08T13:28:05.180Z,98753.13
2023-05-08T13:30:32.221Z,98743.31
2023-05-08T13:32:59.739Z,98744.44
2023-05-08T13:35:28.397Z,98748.88
2023-05-08T13:37:56.045Z,98755.34
2023-05-08T13:40:23.849Z,98756.84
2023-05-08T13:42:51.612Z,98751.28
2023-05-08T13:45:18.946Z,98755.19
2023-05-08T13:47:46.807Z,98753.69
2023-05-08T13:50:15.957Z,98745.72
2023-05-08T13:52:43.235Z,98750.75
2023-05-08T13:55:12.323Z,98741.50
2023-05-08T13:57:40.196Z,98745.56
2023-05-08T14:00:07.904Z,98746.66
2023-05-08T14:02:35.571Z,98753.16
2023-05-08T14:05:03.707Z,98737.81
2023-05-08T14:07:30.797Z,98745.19
2023-05-08T14:09:57.954Z,98747.59
2023-05-08T14:12:25.008Z,98743.38
2023-05-08T14:14:52.063Z,98741.50
2023-05-08T14:17:19.656Z,98739.84
2023-05-08T14:19:46.804Z,98732.25
2023-05-08T14:22:13.863Z,98733.34
2023-05-08T14:24:41.035Z,98734.09
2023-05-08T14:27:08.191Z,98735.94
2023-05-08T14:29:35.370Z,98727.09
2023-05-08T14:32:02.519Z,98735.75
2023-05-08T14:34:29.604Z,98721.69
2023-05-08T14:36:56.732Z,98729.59
2023-05-08T14:39:23.849Z,98721.88
2023-05-08T14:42:17.797Z,98729.25
2023-05-08T14:44:37.959Z,98716.56
2023-05-08T14:47:05.110Z,98725.78
2023-05-08T14:49:38.078Z,98723.03
2023-05-08T14:52:06.889Z,98717.31
2023-05-08T14:54:34.311Z,98726.56
2023-05-08T14:57:01.554Z,98719.34
2023-05-08T14:59:28.631Z,98723.06
2023-05-08T15:01:55.696Z,98730.25
2023-05-08T15:04:22.982Z,98724.50
2023-05-08T15:06:50.116Z,98721.38
2023-05-08T15:09:17.311Z,98716.91
2023-05-08T15:11:44.477Z,98712.09
2023-05-08T15:14:11.584Z,98716.69
2023-05-08T15:16:38.794Z,98718.41
2023-05-08T15:19:05.896Z,98713.63
2023-05-08T15:21:33.026Z,98719.16
2023-05-08T15:24:00.160Z,98718.25
2023-05-08T15:26:27.298Z,98720.09
2023-05-08T15:28:54.431Z,98722.50
2023-05-08T15:31:21.536Z,98714.03
2023-05-08T15:33:48.662Z,98714.97
2023-05-08T15:36:16.016Z,98718.13
2023-05-08T15:38:43.359Z,98714.78
2023-05-08T15:41:14.750Z,98719.03
2023-05-08T15:43:43.808Z,98719.94
2023-05-08T15:46:10.999Z,98721.63
2023-05-08T15:48:38.069Z,98716.81
2023-05-08T15:51:05.466Z,98716.66
2023-05-08T15:53:33.031Z,98717.19
2023-05-08T15:56:00.077Z,98719.03
2023-05-08T15:58:27.641Z,98721.25
2023-05-08T16:00:54.957Z,98718.47
2023-05-08T16:03:22.202Z,98723.47
2023-05-08T16:05:49.636Z,98717.38
2023-05-08T16:08:16.701Z,98722.72
2023-05-08T16:10:43.721Z,98715.88
2023-05-08T16:13:11.009Z,98710.91
2023-05-08T16:15:38.051Z,98715.91
2023-05-08T16:18:06.033Z,98709.44
2023-05-08T16:20:35.001Z,98706.47
2023-05-08T16:23:02.902Z,98705.56
2023-05-08T16:25:30.042Z,98705.19
2023-05-08T16:27:57.324Z,98705.19
2023-05-08T16:30:24.421Z,98709.63
2023-05-08T16:32:51.604Z,98708.69
2023-05-08T16:35:19.571Z,98700.75
2023-05-08T16:37:46.834Z,98705.94
2023-05-08T16:40:14.187Z,98698.13
2023-05-08T16:42:41.676Z,98710.84
2023-05-08T16:45:09.461Z,98706.03
2023-05-08T16:47:36.690Z,98712.69
2023-05-08T16:50:04.908Z,98712.84
2023-05-08T16:52:32.875Z,98715.78
2023-05-08T16:54:59.976Z,98713.00
2023-05-08T16:57:30.668Z,98703.59
2023-05-08T16:59:57.725Z,98711.66
2023-05-08T17:02:24.959Z,98707.78
2023-05-08T17:04:52.553Z,98715.91
2023-05-08T17:07:19.582Z,98712.75
2023-05-08T17:09:49.155Z,98712.56
2023-05-08T17:12:16.372Z,98719.91
2023-05-08T17:14:43.406Z,98718.41
2023-05-08T17:17:11.225Z,98722.28
2023-05-08T17:19:38.572Z,98726.50
2023-05-08T17:22:05.626Z,98731.47
2023-05-08T17:24:32.935Z,98727.94
2023-05-08T17:27:00.056Z,98734.38
2023-05-08T17:29:27.142Z,98738.41
2023-05-08T17:31:54.296Z,98730.31
2023-05-08T17:34:22.822Z,98736.34
2023-05-08T17:36:50.100Z,98747.19
2023-05-08T17:39:19.915Z,98740.53
2023-05-08T17:41:49.674Z,98746.59
2023-05-08T17:44:17.168Z,98743.22
2023-05-08T17:46:44.834Z,98747.06
2023-05-08T17:49:12.784Z,98743.91
2023-05-08T17:51:41.122Z,98749.25
2023-05-08T17:54:08.477Z,98751.59
2023-05-08T17:56:35.607Z,98745.28
2023-05-08T17:59:02.644Z,98745.81
2023-05-08T18:01:29.964Z,98743.22
2023-05-08T18:03:57.386Z,98742.63
2023-05-08T18:06:24.435Z,98743.34
2023-05-08T18:08:51.585Z,98744.09
2023-05-08T18:11:23.131Z,98750.47
2023-05-08T18:13:51.745Z,98754.72
2023-05-08T18:16:21.205Z,98753.47
2023-05-08T18:18:49.378Z,98752.50
2023-05-08T18:21:16.518Z,98748.81
2023-05-08T18:23:43.623Z,98755.00
2023-05-08T18:26:15.432Z,98754.19
2023-05-08T18:28:43.242Z,98754.13
2023-05-08T18:31:10.931Z,98759.09
2023-05-08T18:33:38.805Z,98758.91
2023-05-08T18:36:06.952Z,98753.66
2023-05-08T18:38:34.789Z,98750.50
2023-05-08T18:41:03.687Z,98751.97
2023-05-08T18:43:30.906Z,98757.22
2023-05-08T18:46:00.195Z,98756.06
2023-05-08T18:48:27.341Z,98761.44
2023-05-08T18:50:58.326Z,98757.59
2023-05-08T18:53:25.504Z,98762.69
2023-05-08T18:55:53.235Z,98759.94
2023-05-08T18:58:20.352Z,98759.75
2023-05-08T19:00:47.616Z,98759.75
2023-05-08T19:03:14.881Z,98749.47
2023-05-08T19:05:42.315Z,98754.53
2023-05-08T19:08:09.731Z,98757.84
2023-05-08T19:10:38.282Z,98769.72
2023-05-08T19:13:05.417Z,98766.13
2023-05-08T19:15:32.596Z,98768.28
2023-05-08T19:18:01.411Z,98759.56
2023-05-08T19:20:28.488Z,98762.13
2023-05-08T19:22:55.684Z,98765.50
2023-05-08T19:25:22.775Z,98765.63
2023-05-08T19:27:49.826Z,98767.84
2023-05-08T19:30:16.868Z,98772.50
2023-05-08T19:32:43.914Z,98773.03
2023-05-08T19:35:11.099Z,98770.81
2023-05-08T19:37:38.166Z,98771.66
2023-05-08T19:40:06.090Z,98767.00
2023-05-08T19:42:33.324Z,98764.41
2023-05-08T19:45:00.455Z,98764.97
2023-05-08T19:47:27.589Z,98765.56
2023-05-08T19:49:54.630Z,98773.94
2023-05-08T19:52:21.674Z,98765.00
2023-05-08T19:54:48.795Z,98759.28
2023-05-08T19:57:15.994Z,98760.03
2023-05-08T19:59:43.127Z,98756.31
2023-05-08T20:02:10.473Z,98754.16
2023-05-08T20:04:54.393Z,98746.97
2023-05-08T20:07:24.697Z,98758.50
2023-05-08T20:09:51.977Z,98764.09
2023-05-08T20:12:19.018Z,98758.97
2023-05-08T20:14:46.091Z,98760.03
2023-05-08T20:17:13.197Z,98759.69
2023-05-08T20:19:40.318Z,98757.53
2023-05-08T20:22:07.430Z,98762.38
2023-05-08T20:24:34.467Z,98769.72
2023-05-08T20:27:01.547Z,98769.56
2023-05-08T20:29:28.700Z,98768.16
2023-05-08T20:31:55.886Z,98771.78
2023-05-08T20:34:22.980Z,98764.66
2023-05-08T20:36:50.096Z,98767.94
2023-05-08T20:39:17.222Z,98768.75
2023-05-08T20:41:44.243Z,98768.06
2023-05-08T20:44:12.498Z,98771.16
2023-05-08T20:46:40.687Z,98771.97
2023-05-08T20:49:07.836Z,98775.31
2023-05-08T20:51:36.274Z,98773.31
2023-05-08T20:54:03.499Z,98768.88
2023-05-08T20:56:30.552Z,98767.97
2023-05-08T20:58:57.588Z,98762.06
2023-05-08T21:01:24.736Z,98766.78
2023-05-08T21:03:51.836Z,98764.53
2023-05-08T21:06:18.963Z,98756.06
2023-05-08T21:08:46.049Z,98756.81
2023-05-08T21:11:13.088Z,98759.03
2023-05-08T21:13:40.147Z,98758.75
2023-05-08T21:16:08.270Z,98765.22
2023-05-08T21:18:35.628Z,98758.16
2023-05-08T21:21:03.065Z,98753.44
2023-05-08T21:23:31.143Z,98757.16
2023-05-08T21:25:58.181Z,98760.69
2023-05-08T21:28:25.388Z,98756.75
2023-05-08T21:30:52.447Z,98750.59
2023-05-08T21:33:19.505Z,98755.34
2023-05-08T21:35:47.829Z,98759.25
2023-05-08T21:38:14.884Z,98753.03
2023-05-08T21:40:41.939Z,98750.84
2023-05-08T21:43:09.041Z,98747.41
2023-05-08T21:45:36.208Z,98757.66
2023-05-08T21:48:03.386Z,98759.44
2023-05-08T21:50:30.748Z,98751.25
2023-05-08T21:52:57.838Z,98761.03
2023-05-08T21:55:24.978Z,98756.84
2023-05-08T21:57:52.175Z,98761.13
2023-05-08T22:00:20.091Z,98756.66
2023-05-08T22:02:47.527Z,98772.41
2023-05-08T22:05:14.976Z,98758.25
2023-05-08T22:07:42.315Z,98749.81
2023-05-08T22:10:10.443Z,98761.25
2023-05-08T22:12:37.683Z,98758.06
2023-05-08T22:15:09.531Z,98762.84
2023-05-08T22:17:45.352Z,98756.09
2023-05-08T22:20:14.569Z,98746.91
2023-05-08T22:22:41.817Z,98752.47
2023-05-08T22:25:09.036Z,98761.50
2023-05-08T22:27:36.211Z,98746.09
2023-05-08T22:30:03.371Z,98749.84
2023-05-08T22:32:31.023Z,98751.88
2023-05-08T22:34:58.041Z,98749.91
2023-05-08T22:37:26.077Z,98748.44
2023-05-08T22:39:53.212Z,98742.25
2023-05-08T22:42:20.296Z,98740.78
2023-05-08T22:44:47.340Z,98730.84
2023-05-08T22:47:14.697Z,98724.13
2023-05-08T22:49:42.074Z,98723.88
2023-05-08T22:52:10.399Z,98722.91
2023-05-08T22:54:37.429Z,98723.41
2023-05-08T22:57:04.498Z,98722.66
2023-05-08T22:59:31.565Z,98735.59
2023-05-08T23:01:58.722Z,98726.88
2023-05-08T23:04:25.927Z,98735.34
2023-05-08T23:06:53.025Z,98725.69
2023-05-08T23:09:20.314Z,98732.66
2023-05-08T23:11:49.597Z,98727.00
2023-05-08T23:14:16.659Z,98728.50
2023-05-08T23:16:43.751Z,98726.50
2023-05-08T23:19:10.937Z,98726.50
2023-05-08T23:21:38.000Z,98710.34
2023-05-08T23:24:05.412Z,98706.38
2023-05-08T23:26:32.549Z,98707.13
2023-05-08T23:28:59.693Z,98703.19
2023-05-08T23:31:26.953Z,98705.44
2023-05-08T23:33:54.522Z,98703.47
2023-05-08T23:36:22.053Z,98697.25
2023-05-08T23:38:49.096Z,98684.84
2023-05-08T23:41:16.306Z,98690.06
2023-05-08T23:43:43.357Z,98688.09
2023-05-08T23:46:10.507Z,98691.31
2023-05-08T23:48:37.641Z,98691.81
2023-05-08T23:51:04.902Z,98678.66
2023-05-08T23:53:31.951Z,98686.63
2023-05-08T23:55:59.013Z,98680.19
2023-05-08T23:58:26.277Z,98684.19
